createdAt,value
2023-02-27T00:01:59.996Z,6.43
2023-02-27T00:04:20.136Z,6.45
2023-02-27T00:06:39.842Z,5.68
2023-02-27T00:08:59.976Z,5.97
2023-02-27T00:11:20.246Z,5.70
2023-02-27T00:13:40.341Z,6.57
2023-02-27T00:16:00.287Z,7.35
2023-02-27T00:18:20.260Z,8.40
2023-02-27T00:20:39.906Z,7.40
2023-02-27T00:22:59.645Z,8.05
2023-02-27T00:25:19.580Z,6.40
2023-02-27T00:27:39.919Z,6.07
2023-02-27T00:29:59.509Z,5.50
2023-02-27T00:32:19.529Z,5.90
2023-02-27T00:34:39.654Z,5.18
2023-02-27T00:36:59.822Z,4.75
2023-02-27T00:39:19.954Z,4.85
2023-02-27T00:41:39.508Z,5.60
2023-02-27T00:43:59.118Z,5.53
2023-02-27T00:46:19.068Z,13.38
2023-02-27T00:48:38.746Z,4.75
2023-02-27T00:50:58.373Z,5.88
2023-02-27T00:53:17.979Z,6.10
2023-02-27T00:55:37.570Z,5.72
2023-02-27T00:57:57.684Z,7.10
2023-02-27T01:00:17.672Z,6.20
2023-02-27T01:02:38.290Z,7.07
2023-02-27T01:04:58.072Z,6.43
2023-02-27T01:07:17.836Z,6.28
2023-02-27T01:09:38.286Z,5.32
2023-02-27T01:11:58.547Z,6.05
2023-02-27T01:14:18.994Z,5.88
2023-02-27T01:16:39.188Z,4.63
2023-02-27T01:18:59.317Z,5.35
2023-02-27T01:21:19.746Z,5.32
2023-02-27T01:23:39.751Z,5.75
2023-02-27T01:25:59.523Z,4.95
2023-02-27T01:28:19.628Z,5.53
2023-02-27T01:30:40.322Z,5.93
2023-02-27T01:33:00.196Z,5.18
2023-02-27T01:35:20.285Z,5.68
2023-02-27T01:37:40.406Z,5.72
2023-02-27T01:40:00.421Z,5.50
2023-02-27T01:42:24.252Z,5.55
2023-02-27T01:45:19.802Z,4.68
2023-02-27T01:47:43.172Z,6.00
2023-02-27T01:52:22.705Z,4.25
2023-02-27T01:54:42.821Z,4.82
2023-02-27T01:57:05.924Z,5.03
2023-02-27T01:59:25.980Z,4.28
2023-02-27T02:01:46.398Z,3.88
2023-02-27T02:04:19.265Z,4.95
2023-02-27T02:06:43.382Z,3.72
2023-02-27T02:09:04.765Z,4.97
2023-02-27T02:11:25.915Z,5.13
2023-02-27T02:13:49.149Z,4.03
2023-02-27T02:19:21.772Z,5.57
2023-02-27T02:21:44.696Z,5.05
2023-02-27T02:24:25.696Z,5.53
2023-02-27T02:27:02.437Z,4.78
2023-02-27T02:29:53.005Z,4.97
2023-02-27T02:32:47.196Z,4.05
2023-02-27T02:35:12.800Z,5.25
2023-02-27T02:38:03.039Z,5.80
2023-02-27T02:40:28.742Z,4.95
2023-02-27T02:43:09.797Z,4.70
2023-02-27T02:45:33.634Z,3.95
2023-02-27T02:48:02.735Z,4.40
2023-02-27T02:50:37.259Z,3.72
2023-02-27T02:53:00.217Z,5.13
2023-02-27T02:55:41.142Z,4.57
2023-02-27T02:58:08.225Z,4.20
2023-02-27T03:00:34.329Z,4.57
2023-02-27T03:03:20.400Z,4.38
2023-02-27T03:06:01.721Z,5.07
2023-02-27T03:08:28.274Z,4.80
2023-02-27T03:11:05.305Z,6.47
2023-02-27T03:13:50.707Z,3.95
2023-02-27T03:16:33.693Z,4.78
2023-02-27T03:19:07.449Z,5.07
2023-02-27T03:21:59.876Z,5.13
2023-02-27T03:24:31.534Z,5.95
2023-02-27T03:26:56.459Z,4.85
2023-02-27T03:29:23.222Z,4.50
2023-02-27T03:31:53.384Z,4.15
2023-02-27T03:34:29.492Z,5.50
2023-02-27T03:37:00.118Z,5.95
2023-02-27T03:39:26.824Z,5.90
2023-02-27T03:42:09.589Z,5.07
2023-02-27T03:44:55.214Z,5.15
2023-02-27T03:47:15.213Z,4.95
2023-02-27T03:49:34.787Z,5.45
2023-02-27T03:51:54.603Z,4.47
2023-02-27T03:54:19.671Z,5.60
2023-02-27T03:57:01.768Z,4.55
2023-02-27T03:59:23.750Z,4.75
2023-02-27T04:01:44.386Z,4.80
2023-02-27T04:04:10.379Z,5.60
2023-02-27T04:06:49.897Z,4.57
2023-02-27T04:09:36.222Z,5.38
2023-02-27T04:12:17.312Z,4.70
2023-02-27T04:14:56.423Z,5.72
2023-02-27T04:17:22.644Z,4.63
2023-02-27T04:19:50.551Z,5.35
2023-02-27T04:22:22.569Z,5.90
2023-02-27T04:24:54.790Z,5.50
2023-02-27T04:27:27.015Z,5.40
2023-02-27T04:29:56.915Z,3.85
2023-02-27T04:32:25.779Z,4.93
2023-02-27T04:34:52.952Z,5.38
2023-02-27T04:37:21.513Z,4.03
2023-02-27T04:39:51.312Z,5.57
2023-02-27T04:42:20.871Z,5.18
2023-02-27T04:44:42.304Z,5.30
2023-02-27T04:47:05.423Z,4.22
2023-02-27T04:49:37.363Z,4.40
2023-02-27T04:52:01.824Z,5.68
2023-02-27T04:54:38.617Z,6.13
2023-02-27T04:57:03.550Z,6.20
2023-02-27T04:59:27.647Z,5.00
2023-02-27T05:01:55.239Z,5.35
2023-02-27T05:04:19.915Z,5.20
2023-02-27T05:06:42.748Z,6.80
2023-02-27T05:09:23.546Z,6.90
2023-02-27T05:11:56.068Z,6.38
2023-02-27T05:14:24.484Z,6.72
2023-02-27T05:16:51.278Z,5.80
2023-02-27T05:19:11.460Z,5.55
2023-02-27T05:21:48.076Z,6.30
2023-02-27T05:24:17.022Z,5.45
2023-02-27T05:26:36.971Z,4.78
2023-02-27T05:29:06.846Z,5.35
2023-02-27T05:31:34.629Z,5.40
2023-02-27T05:34:11.452Z,5.60
2023-02-27T05:36:37.482Z,6.15
2023-02-27T05:39:05.076Z,5.97
2023-02-27T05:41:31.101Z,6.90
2023-02-27T05:43:57.976Z,6.55
2023-02-27T05:46:25.868Z,5.95
2023-02-27T05:49:12.642Z,5.80
2023-02-27T05:51:36.020Z,5.60
2023-02-27T05:54:11.529Z,5.93
2023-02-27T05:56:34.301Z,6.15
2023-02-27T05:59:18.495Z,6.10
2023-02-27T06:01:39.445Z,5.85
2023-02-27T06:03:59.132Z,6.60
2023-02-27T06:06:19.533Z,6.53
2023-02-27T06:08:39.813Z,6.60
2023-02-27T06:10:59.637Z,6.25
2023-02-27T06:13:19.223Z,6.75
2023-02-27T06:15:38.893Z,6.15
2023-02-27T06:17:58.598Z,5.22
2023-02-27T06:20:18.756Z,6.05
2023-02-27T06:22:39.015Z,5.75
2023-02-27T06:24:59.438Z,6.05
2023-02-27T06:27:20.410Z,7.00
2023-02-27T06:29:40.528Z,5.60
2023-02-27T06:32:01.224Z,6.40
2023-02-27T06:34:21.266Z,5.00
2023-02-27T06:36:41.195Z,6.05
2023-02-27T06:39:01.319Z,5.90
2023-02-27T06:41:21.170Z,6.45
2023-02-27T06:43:41.152Z,6.30
2023-02-27T06:46:01.520Z,6.43
2023-02-27T06:48:21.663Z,6.25
2023-02-27T06:50:41.800Z,5.53
2023-02-27T06:53:01.606Z,5.85
2023-02-27T06:55:22.004Z,6.13
2023-02-27T06:57:42.812Z,6.05
2023-02-27T07:00:04.350Z,7.18
2023-02-27T07:02:25.431Z,7.18
2023-02-27T07:04:45.735Z,6.40
2023-02-27T07:07:34.046Z,5.90
2023-02-27T07:09:56.196Z,5.57
2023-02-27T07:12:16.024Z,7.30
2023-02-27T07:14:35.983Z,6.65
2023-02-27T07:16:56.665Z,5.90
2023-02-27T07:19:17.841Z,6.03
2023-02-27T07:21:39.130Z,5.78
2023-02-27T07:23:59.294Z,7.82
2023-02-27T07:26:21.551Z,8.15
2023-02-27T07:28:41.768Z,7.18
2023-02-27T07:31:03.117Z,6.35
2023-02-27T07:33:23.286Z,9.73
2023-02-27T07:35:44.696Z,5.90
2023-02-27T07:38:04.622Z,5.95
2023-02-27T07:40:24.733Z,5.57
2023-02-27T07:42:48.886Z,5.78
2023-02-27T07:45:09.392Z,3.85
2023-02-27T07:47:29.882Z,6.25
2023-02-27T07:49:49.544Z,5.63
2023-02-27T07:52:10.668Z,5.30
2023-02-27T07:54:30.637Z,5.35
2023-02-27T07:56:51.747Z,5.35
2023-02-27T07:59:13.852Z,6.40
2023-02-27T08:01:35.520Z,6.93
2023-02-27T08:03:55.884Z,7.18
2023-02-27T08:06:15.968Z,5.50
2023-02-27T08:08:36.231Z,6.13
2023-02-27T08:10:57.979Z,5.70
2023-02-27T08:13:24.932Z,5.10
2023-02-27T08:15:51.110Z,5.25
2023-02-27T08:18:11.335Z,6.30
2023-02-27T08:20:31.464Z,6.15
2023-02-27T08:22:51.427Z,5.55
2023-02-27T08:25:11.651Z,6.32
2023-02-27T08:27:33.491Z,5.68
2023-02-27T08:29:53.240Z,6.80
2023-02-27T08:32:15.728Z,7.18
2023-02-27T08:34:35.774Z,6.40
2023-02-27T08:36:56.935Z,5.65
2023-02-27T08:39:17.882Z,6.60
2023-02-27T08:41:38.881Z,5.13
2023-02-27T08:43:58.545Z,4.95
2023-02-27T08:46:19.237Z,6.63
2023-02-27T08:49:25.253Z,5.07
2023-02-27T08:51:45.978Z,5.68
2023-02-27T08:54:06.447Z,5.22
2023-02-27T08:56:28.452Z,5.88
2023-02-27T08:58:48.820Z,7.00
2023-02-27T09:01:09.189Z,5.03
2023-02-27T09:03:29.495Z,4.90
2023-02-27T09:05:50.848Z,6.30
2023-02-27T09:08:11.205Z,6.00
2023-02-27T09:10:32.431Z,6.40
2023-02-27T09:12:52.114Z,5.22
2023-02-27T09:15:12.050Z,4.72
2023-02-27T09:17:32.331Z,6.32
2023-02-27T09:19:52.451Z,6.65
2023-02-27T09:22:12.753Z,5.15
2023-02-27T09:24:32.973Z,5.30
2023-02-27T09:26:53.584Z,7.55
2023-02-27T09:29:13.717Z,6.90
2023-02-27T09:31:34.316Z,6.53
2023-02-27T09:33:56.598Z,5.20
2023-02-27T09:36:18.283Z,5.47
2023-02-27T09:38:40.296Z,6.80
2023-02-27T09:41:01.770Z,8.15
2023-02-27T09:43:36.392Z,10.63
2023-02-27T09:45:58.272Z,7.55
2023-02-27T09:48:51.377Z,7.50
2023-02-27T09:51:35.153Z,6.43
2023-02-27T09:54:00.554Z,5.95
2023-02-27T09:56:26.134Z,7.00
2023-02-27T09:59:13.304Z,5.55
2023-02-27T10:01:42.952Z,4.93
2023-02-27T10:04:45.272Z,4.80
2023-02-27T10:07:31.958Z,4.93
2023-02-27T10:09:57.889Z,4.70
2023-02-27T10:12:37.499Z,4.35
2023-02-27T10:15:02.398Z,5.18
2023-02-27T10:17:50.583Z,5.63
2023-02-27T10:20:23.358Z,4.53
2023-02-27T10:22:46.626Z,5.28
2023-02-27T10:25:29.808Z,4.30
2023-02-27T10:27:54.514Z,4.38
2023-02-27T10:30:29.794Z,4.50
2023-02-27T10:33:17.219Z,4.30
2023-02-27T10:35:41.448Z,4.68
2023-02-27T10:38:10.683Z,5.28
2023-02-27T10:40:31.110Z,4.07
2023-02-27T10:42:52.444Z,4.35
2023-02-27T10:45:15.085Z,6.05
2023-02-27T10:47:34.865Z,4.80
2023-02-27T10:49:54.771Z,9.75
2023-02-27T10:52:17.481Z,5.50
2023-02-27T10:54:38.316Z,4.97
2023-02-27T10:57:01.670Z,5.22
2023-02-27T10:59:28.662Z,4.28
2023-02-27T11:01:57.571Z,4.20
2023-02-27T11:04:33.062Z,4.65
2023-02-27T11:06:56.084Z,4.90
2023-02-27T11:09:21.622Z,4.85
2023-02-27T11:11:42.995Z,5.07
2023-02-27T11:14:37.293Z,4.25
2023-02-27T11:16:59.469Z,5.70
2023-02-27T11:19:26.163Z,6.07
2023-02-27T11:22:06.650Z,4.57
2023-02-27T11:24:28.353Z,4.78
2023-02-27T11:26:57.157Z,5.30
2023-02-27T11:29:19.684Z,4.35
2023-02-27T11:31:46.959Z,7.63
2023-02-27T11:34:07.722Z,10.70
2023-02-27T11:36:48.138Z,7.20
2023-02-27T11:39:20.489Z,8.98
2023-02-27T11:41:44.178Z,4.85
2023-02-27T11:44:04.903Z,4.05
2023-02-27T11:46:48.122Z,4.07
2023-02-27T11:49:39.225Z,5.40
2023-02-27T11:52:12.972Z,4.18
2023-02-27T11:54:49.683Z,3.92
2023-02-27T11:57:40.301Z,4.15
2023-02-27T12:00:17.260Z,5.32
2023-02-27T12:02:51.333Z,3.80
2023-02-27T12:05:38.368Z,4.60
2023-02-27T12:08:16.597Z,4.55
2023-02-27T12:10:48.256Z,3.47
2023-02-27T12:13:18.880Z,4.15
2023-02-27T12:15:55.828Z,3.92
2023-02-27T12:18:27.768Z,4.75
2023-02-27T12:21:15.443Z,4.63
2023-02-27T12:23:45.579Z,3.92
2023-02-27T12:26:17.466Z,4.50
2023-02-27T12:28:53.682Z,5.70
2023-02-27T12:31:40.416Z,3.38
2023-02-27T12:34:15.130Z,3.58
2023-02-27T12:36:35.291Z,3.95
2023-02-27T12:38:55.961Z,3.17
2023-02-27T12:41:32.738Z,3.67
2023-02-27T12:44:23.665Z,3.92
2023-02-27T12:47:22.354Z,3.00
2023-02-27T12:49:58.318Z,4.68
2023-02-27T12:52:34.742Z,5.10
2023-02-27T12:55:13.171Z,7.43
2023-02-27T12:58:06.803Z,5.82
2023-02-27T13:00:45.481Z,4.82
2023-02-27T13:03:24.993Z,5.70
2023-02-27T13:06:01.008Z,5.25
2023-02-27T13:08:39.868Z,6.32
2023-02-27T13:11:42.820Z,5.75
2023-02-27T13:14:50.912Z,7.43
2023-02-27T13:17:19.915Z,9.07
2023-02-27T13:19:46.369Z,9.07
2023-02-27T13:22:11.093Z,5.07
2023-02-27T13:24:32.838Z,5.85
2023-02-27T13:27:10.335Z,4.22
2023-02-27T13:29:46.939Z,5.57
2023-02-27T15:46:29.235Z,31.35
2023-02-27T15:48:51.593Z,30.90
2023-02-27T15:51:12.607Z,23.25
2023-02-27T15:53:33.288Z,14.35
2023-02-27T15:56:05.402Z,7.53
2023-02-27T15:58:33.919Z,6.20
2023-02-27T16:01:11.307Z,6.40
2023-02-27T16:03:45.731Z,7.20
2023-02-27T16:06:31.334Z,7.95
2023-02-27T16:09:15.601Z,5.68
2023-02-27T16:11:36.960Z,6.00
2023-02-27T16:13:57.223Z,6.65
2023-02-27T16:16:32.167Z,6.57
2023-02-27T16:18:57.653Z,6.10
2023-02-27T16:21:23.272Z,6.50
2023-02-27T16:23:44.108Z,7.07
2023-02-27T16:26:15.871Z,6.10
2023-02-27T16:28:45.566Z,6.30
2023-02-27T16:31:21.011Z,6.43
2023-02-27T16:33:42.096Z,6.72
2023-02-27T16:36:19.099Z,6.40
2023-02-27T16:38:38.695Z,6.88
2023-02-27T16:40:58.474Z,9.93
2023-02-27T16:43:18.430Z,8.55
2023-02-27T16:45:48.821Z,7.03
2023-02-27T16:48:09.364Z,6.70
2023-02-27T16:50:38.433Z,7.60
2023-02-27T16:52:58.255Z,7.22
2023-02-27T16:55:18.285Z,7.47
2023-02-27T16:57:37.957Z,7.80
2023-02-27T16:59:58.159Z,11.73
2023-02-27T17:02:18.635Z,9.80
2023-02-27T17:04:38.704Z,7.57
2023-02-27T17:07:00.429Z,7.10
2023-02-27T17:09:20.767Z,7.72
2023-02-27T17:11:40.573Z,6.82
2023-02-27T17:14:00.472Z,7.35
2023-02-27T17:16:20.685Z,8.10
2023-02-27T17:18:40.715Z,8.68
2023-02-27T17:21:02.039Z,7.75
2023-02-27T17:23:22.434Z,6.65
2023-02-27T17:25:42.157Z,8.25
2023-02-27T17:28:01.886Z,7.45
2023-02-27T17:30:21.586Z,8.57
2023-02-27T17:32:41.526Z,8.88
2023-02-27T17:35:01.765Z,9.00
2023-02-27T17:37:21.611Z,10.70
2023-02-27T17:39:41.366Z,8.80
2023-02-27T17:42:02.826Z,9.20
2023-02-27T17:44:22.734Z,7.25
2023-02-27T17:46:42.561Z,8.00
2023-02-27T17:49:02.516Z,8.18
2023-02-27T17:51:22.729Z,9.13
2023-02-27T17:53:42.965Z,8.27
2023-02-27T17:56:03.940Z,8.55
2023-02-27T17:58:24.039Z,8.27
2023-02-27T18:00:43.724Z,8.93
2023-02-27T18:03:03.463Z,7.72
2023-02-27T18:05:23.573Z,9.40
2023-02-27T18:07:43.287Z,7.40
2023-02-27T18:10:05.303Z,8.38
2023-02-27T18:12:25.603Z,7.57
2023-02-27T18:14:45.207Z,7.55
2023-02-27T18:17:11.066Z,8.25
2023-02-27T18:19:32.535Z,8.05
2023-02-27T18:21:52.922Z,8.23
2023-02-27T18:24:15.065Z,8.43
2023-02-27T18:26:35.185Z,11.18
2023-02-27T18:28:59.404Z,9.63
2023-02-27T18:31:25.875Z,8.13
2023-02-27T18:33:45.739Z,6.88
2023-02-27T18:36:05.878Z,8.18
2023-02-27T18:38:25.456Z,8.05
2023-02-27T18:40:44.981Z,10.90
2023-02-27T18:43:04.757Z,11.55
2023-02-27T18:45:24.629Z,9.70
2023-02-27T18:47:45.548Z,9.27
2023-02-27T18:50:05.698Z,7.43
2023-02-27T18:52:25.452Z,7.47
2023-02-27T18:54:45.589Z,7.80
2023-02-27T18:57:05.759Z,13.13
2023-02-27T18:59:25.700Z,6.72
2023-02-27T19:01:45.578Z,7.40
2023-02-27T19:04:07.120Z,8.82
2023-02-27T19:06:27.615Z,9.43
2023-02-27T19:08:47.560Z,8.80
2023-02-27T19:11:07.591Z,7.60
2023-02-27T19:13:27.626Z,7.60
2023-02-27T19:15:47.586Z,7.32
2023-02-27T19:18:07.769Z,6.80
2023-02-27T19:20:27.853Z,6.75
2023-02-27T19:22:47.694Z,8.88
2023-02-27T19:25:08.236Z,7.90
2023-02-27T19:27:29.324Z,9.50
2023-02-27T19:29:49.718Z,9.65
2023-02-27T19:32:10.807Z,9.52
2023-02-27T19:34:31.121Z,12.77
2023-02-27T19:36:51.528Z,10.70
2023-02-27T19:39:11.604Z,10.63
2023-02-27T19:41:33.432Z,9.88
2023-02-27T19:43:53.933Z,9.27
2023-02-27T19:46:17.045Z,9.52
2023-02-27T19:51:00.405Z,9.65
2023-02-27T19:53:20.588Z,9.57
2023-02-27T19:55:40.502Z,7.97
2023-02-27T19:58:00.840Z,8.05
2023-02-27T20:00:21.464Z,10.20
2023-02-27T20:02:42.147Z,16.92
2023-02-27T20:05:02.555Z,12.40
2023-02-27T20:07:23.258Z,10.02
2023-02-27T20:09:43.095Z,9.10
2023-02-27T20:12:03.604Z,8.10
2023-02-27T20:14:23.536Z,6.90
2023-02-27T20:16:45.175Z,7.43
2023-02-27T20:19:06.624Z,7.18
2023-02-27T20:21:27.662Z,7.10
2023-02-27T20:23:50.893Z,7.90
2023-02-27T20:26:15.364Z,9.23
2023-02-27T20:28:36.908Z,9.35
2023-02-27T20:30:57.368Z,9.18
2023-02-27T20:33:17.126Z,9.93
2023-02-27T20:35:38.618Z,8.43
2023-02-27T20:37:58.235Z,8.93
2023-02-27T20:40:18.085Z,12.55
2023-02-27T20:42:37.982Z,15.35
2023-02-27T20:44:58.271Z,13.77
2023-02-27T20:47:18.931Z,13.82
2023-02-27T20:49:39.029Z,11.63
2023-02-27T20:51:59.668Z,9.73
2023-02-27T20:54:19.647Z,10.50
2023-02-27T20:56:40.604Z,12.60
2023-02-27T20:59:06.038Z,12.00
2023-02-27T21:01:26.477Z,12.13
2023-02-27T21:03:50.064Z,9.70
2023-02-27T21:06:12.022Z,9.95
2023-02-27T21:08:33.699Z,9.82
2023-02-27T21:10:55.037Z,9.20
2023-02-27T21:13:14.980Z,8.35
2023-02-27T21:15:37.860Z,9.93
2023-02-27T21:20:20.798Z,12.70
2023-02-27T21:22:40.875Z,9.38
2023-02-27T21:25:00.610Z,9.95
2023-02-27T21:27:20.934Z,8.57
2023-02-27T21:29:40.848Z,12.40
2023-02-27T21:32:01.082Z,16.58
2023-02-27T21:34:23.840Z,15.90
2023-02-27T21:36:45.102Z,12.82
2023-02-27T21:39:06.830Z,11.35
2023-02-27T21:41:27.071Z,11.73
2023-02-27T21:43:46.674Z,12.43
2023-02-27T21:46:12.116Z,11.25
2023-02-27T21:48:32.145Z,15.20
2023-02-27T21:50:57.338Z,15.68
2023-02-27T21:53:17.228Z,17.83
2023-02-27T21:55:37.852Z,15.27
2023-02-27T21:57:57.854Z,13.95
2023-02-27T22:00:18.294Z,19.48
2023-02-27T22:02:39.059Z,19.73
2023-02-27T22:04:58.897Z,15.75
2023-02-27T22:07:18.315Z,14.95
2023-02-27T22:09:38.059Z,13.68
2023-02-27T22:11:58.018Z,13.63
2023-02-27T22:14:18.107Z,12.18
2023-02-27T22:16:38.366Z,11.32
2023-02-27T22:18:57.993Z,9.35
2023-02-27T22:21:21.929Z,9.05
2023-02-27T22:23:42.507Z,8.95
2023-02-27T22:26:05.105Z,9.25
2023-02-27T22:28:24.788Z,9.82
2023-02-27T22:30:45.148Z,9.45
2023-02-27T22:33:05.335Z,9.15
2023-02-27T22:35:25.347Z,10.02
2023-02-27T22:37:45.312Z,9.55
2023-02-27T22:40:06.015Z,9.10
2023-02-27T22:42:26.069Z,8.40
2023-02-27T22:44:45.783Z,9.68
2023-02-27T22:47:05.920Z,8.80
2023-02-27T22:49:25.522Z,9.98
2023-02-27T22:51:46.918Z,12.10
2023-02-27T22:54:09.390Z,11.70
2023-02-27T22:56:29.604Z,11.52
2023-02-27T22:58:49.528Z,12.45
2023-02-27T23:01:21.343Z,14.27
2023-02-27T23:03:42.249Z,18.30
2023-02-27T23:06:02.284Z,18.55
2023-02-27T23:08:22.229Z,18.42
2023-02-27T23:10:42.292Z,17.95
2023-02-27T23:13:01.858Z,13.30
2023-02-27T23:15:21.589Z,13.38
2023-02-27T23:17:52.965Z,12.95
2023-02-27T23:20:18.190Z,13.23
2023-02-27T23:22:38.473Z,10.95
2023-02-27T23:24:58.428Z,13.27
2023-02-27T23:27:25.829Z,14.48
2023-02-27T23:29:45.966Z,14.00
2023-02-27T23:32:06.635Z,14.65
2023-02-27T23:34:26.562Z,11.82
2023-02-27T23:36:47.268Z,11.07
2023-02-27T23:39:07.656Z,13.18
2023-02-27T23:41:28.288Z,12.73
2023-02-27T23:43:51.906Z,10.88
2023-02-27T23:48:32.916Z,12.25
2023-02-27T23:50:52.879Z,13.35
2023-02-27T23:53:13.769Z,14.25
2023-02-27T23:55:35.766Z,13.80
2023-02-27T23:57:58.905Z,14.35
